PDT,Max TemperatureF,Mean TemperatureF,Min TemperatureF,Max Dew PointF,MeanDew PointF,Min DewpointF,Max Humidity, Mean Humidity, Min Humidity, Max Sea Level PressureIn, Mean Sea Level PressureIn, Min Sea Level PressureIn, Max VisibilityMiles, Mean VisibilityMiles, Min VisibilityMiles, Max Wind SpeedMPH, Mean Wind SpeedMPH, Max Gust SpeedMPH,PrecipitationIn, CloudCover, Events, WindDirDegrees
2013-10-1,54,44,34,41,37,34,93,73,51,30.10,29.96,29.80,10,9,9,13,5,17,0.01,5,Rain,173
2013-10-2,52,44,36,45,41,36,100,86,62,30.19,30.15,30.10,10,9,5,8,4,,0.08,8,Rain,24
2013-10-3,55,45,35,41,40,32,93,81,47,30.46,30.34,30.20,10,9,9,8,4,,0.00,4,,358
2013-10-4,59,44,29,45,36,28,100,75,34,30.55,30.46,30.35,10,9,9,8,3,,0.00,3,,93
2013-10-5,55,50,45,45,41,39,87,71,47,30.36,30.33,30.26,10,9,5,10,4,,0.00,7,Rain,146
2013-10-6,65,52,39,43,40,35,93,71,22,30.25,30.08,29.86,10,9,5,5,2,,0.00,0,Rain,124
2013-10-7,61,50,38,46,39,32,93,65,26,29.85,29.79,29.75,10,9,9,17,5,24,0.00,6,Rain,177
2013-10-8,55,46,35,41,38,32,93,69,38,30.12,29.91,29.79,10,9,8,17,6,23,0.03,7,Rain,170
2013-10-9,55,42,28,41,34,27,100,79,48,30.20,30.08,29.88,10,9,9,6,2,,0.00,5,,112
2013-10-10,54,44,33,41,38,30,93,71,40,30.07,29.93,29.86,10,9,9,13,4,,0.00,6,Rain,163
2013-10-11,50,38,26,41,35,27,100,82,56,30.21,30.14,30.07,10,9,9,7,2,,0.00,6,,17
2013-10-12,55,44,34,41,37,32,93,73,37,30.25,30.16,30.10,10,9,9,16,4,18,0.00,4,,7
2013-10-13,55,43,31,39,34,30,93,72,32,30.42,30.33,30.25,10,9,9,9,3,,0.00,3,,26
2013-10-14,54,40,25,39,33,25,100,80,51,30.54,30.49,30.43,10,9,7,8,4,,0.00,0,,20
2013-10-15,53,40,27,44,37,28,100,84,54,30.49,30.35,30.24,10,8,5,8,2,,0.02,5,Rain,46
2013-10-16,55,46,37,46,43,35,93,87,63,30.28,30.25,30.22,10,8,5,6,2,,0.00,7,,34
2013-10-17,55,42,29,41,34,28,100,89,49,30.40,30.34,30.28,10,8,3,10,2,,0.00,2,,30
2013-10-18,51,39,27,42,35,27,100,88,67,30.39,30.32,30.24,10,9,8,6,2,22,0.00,1,,28
2013-10-19,51,40,29,43,37,30,100,90,69,30.26,30.22,30.16,10,8,5,7,3,,0.00,3,,12
2013-10-20,58,44,31,46,39,32,100,91,59,30.27,30.23,30.16,10,7,0,8,3,,0.00,4,Fog,29
2013-10-21,57,44,32,46,39,32,100,94,63,30.30,30.26,30.19,10,6,0,8,3,,0.00,4,Fog-Rain,23
2013-10-22,46,39,32,45,40,32,100,98,92,30.29,30.24,30.19,8,3,0,6,2,,0.01,6,Fog-Rain,48
2013-10-23,46,44,42,43,43,41,100,97,87,30.27,30.23,30.19,10,5,1,6,3,,0.00,8,Rain,59
2013-10-24,45,44,42,43,42,41,100,94,86,30.22,30.19,30.14,10,6,1,5,2,,0.00,8,Rain,167
2013-10-25,44,43,42,43,41,39,93,89,81,30.38,30.31,30.23,10,9,5,7,2,,0.00,8,Rain,340
2013-10-26,43,42,41,41,39,37,93,89,81,30.42,30.32,30.14,10,9,5,7,4,,0.00,8,Rain,54
2013-10-27,48,44,39,43,41,32,93,90,70,30.17,30.03,29.97,10,8,2,14,5,,0.08,8,Rain,359
2013-10-28,48,38,28,32,28,25,86,66,31,30.23,30.16,30.09,10,9,9,26,9,32,0.00,0,,11
2013-10-29,46,34,21,30,26,19,100,80,49,30.13,30.07,30.01,10,9,9,7,3,,0.00,0,,25
2013-10-30,47,35,23,34,30,23,100,75,45,30.10,30.06,30.01,10,9,9,7,2,,0.00,6,Rain,152
2013-10-31,53,44,34,41,36,31,94,76,48,30.18,30.07,29.99,10,9,5,9,5,,0.01,6,Rain,153